Surface Data

82.9 °F / 28.3 °C
ENE at 9 MPH
85%
78.1°F / 25.6 °C
29.84" (1010 mb)
10 mile(s)
partly cloudy
2020.08.04 1120 UTC

Surface Data

Raw METARs

2020/08/04 11:20
PKWA 041120Z AUTO 07008KT 10SM SCT050 28/26 A2984 RMK AO2 T02830256

Translated METAR

Kwajalein, Bucholz AAF, Kwajalein KMR ATOL Airport, Marshall Islands (PKWA) 08-43N 167-44E 2M
Aug 04, 2020 - 07:20 AM EDT / 2020.08.04 1120 UTC
Wind: from the ENE (070 degrees) at 9 MPH (8 KT):0
Visibility: 10 mile(s):0
Sky conditions: partly cloudy
Temperature: 82.9 F (28.3 C)
Dew Point: 78.1 F (25.6 C)
Relative Humidity: 85%
Pressure (altimeter): 29.84 in. Hg (1010 hPa)
ob: PKWA 041120Z AUTO 07008KT 10SM SCT050 28/26 A2984 RMK AO2 T02830256
cycle: 11